sensor_id;sensor_type;location;lat;lon;timestamp;P1;durP1;ratioP1;P2;durP2;ratioP2
12601;SDS011;30282;16.436;99.370;2023-06-14T00:01:08;25.10;;;8.50;;
12601;SDS011;30282;16.436;99.370;2023-06-14T00:03:42;18.23;;;9.20;;
12601;SDS011;30282;16.436;99.370;2023-06-14T00:06:11;17.23;;;9.50;;
12601;SDS011;30282;16.436;99.370;2023-06-14T00:08:42;19.07;;;10.33;;
12601;SDS011;30282;16.436;99.370;2023-06-14T00:11:11;16.33;;;9.03;;
12601;SDS011;30282;16.436;99.370;2023-06-14T00:13:40;11.57;;;8.40;;
12601;SDS011;30282;16.436;99.370;2023-06-14T00:16:10;18.50;;;10.73;;
12601;SDS011;30282;16.436;99.370;2023-06-14T00:18:39;18.40;;;10.10;;
12601;SDS011;30282;16.436;99.370;2023-06-14T00:21:10;14.63;;;9.43;;
12601;SDS011;30282;16.436;99.370;2023-06-14T00:23:40;19.20;;;10.17;;
12601;SDS011;30282;16.436;99.370;2023-06-14T00:26:13;20.73;;;10.37;;
12601;SDS011;30282;16.436;99.370;2023-06-14T00:28:43;22.17;;;10.10;;
12601;SDS011;30282;16.436;99.370;2023-06-14T00:31:12;15.43;;;9.43;;
12601;SDS011;30282;16.436;99.370;2023-06-14T00:33:41;13.60;;;9.50;;
12601;SDS011;30282;16.436;99.370;2023-06-14T00:36:11;18.60;;;10.23;;
12601;SDS011;30282;16.436;99.370;2023-06-14T00:38:40;14.70;;;9.70;;
12601;SDS011;30282;16.436;99.370;2023-06-14T00:41:11;13.37;;;9.00;;
12601;SDS011;30282;16.436;99.370;2023-06-14T00:43:43;14.93;;;10.10;;
12601;SDS011;30282;16.436;99.370;2023-06-14T00:46:12;17.90;;;8.20;;
12601;SDS011;30282;16.436;99.370;2023-06-14T00:48:42;16.33;;;11.10;;
12601;SDS011;30282;16.436;99.370;2023-06-14T00:51:11;17.20;;;8.27;;
12601;SDS011;30282;16.436;99.370;2023-06-14T00:53:41;17.53;;;9.73;;
12601;SDS011;30282;16.436;99.370;2023-06-14T00:56:13;14.23;;;9.37;;
12601;SDS011;30282;16.436;99.370;2023-06-14T00:58:46;15.70;;;9.27;;
12601;SDS011;30282;16.436;99.370;2023-06-14T01:01:16;19.17;;;11.20;;
12601;SDS011;30282;16.436;99.370;2023-06-14T01:03:46;16.07;;;10.63;;
12601;SDS011;30282;16.436;99.370;2023-06-14T01:06:18;17.63;;;10.03;;
12601;SDS011;30282;16.436;99.370;2023-06-14T01:09:00;17.17;;;9.27;;
12601;SDS011;30282;16.436;99.370;2023-06-14T01:11:37;22.60;;;9.57;;
12601;SDS011;30282;16.436;99.370;2023-06-14T01:14:13;13.53;;;8.87;;
12601;SDS011;30282;16.436;99.370;2023-06-14T01:16:44;13.97;;;8.60;;
12601;SDS011;30282;16.436;99.370;2023-06-14T01:19:15;16.10;;;9.17;;
12601;SDS011;30282;16.436;99.370;2023-06-14T01:21:45;18.53;;;10.43;;
12601;SDS011;30282;16.436;99.370;2023-06-14T01:24:18;18.10;;;10.10;;
12601;SDS011;30282;16.436;99.370;2023-06-14T01:26:51;22.57;;;10.00;;
12601;SDS011;30282;16.436;99.370;2023-06-14T01:29:22;13.90;;;9.40;;
12601;SDS011;30282;16.436;99.370;2023-06-14T01:31:53;16.70;;;9.67;;
12601;SDS011;30282;16.436;99.370;2023-06-14T01:34:23;14.07;;;9.80;;
12601;SDS011;30282;16.436;99.370;2023-06-14T01:36:52;20.53;;;13.13;;
12601;SDS011;30282;16.436;99.370;2023-06-14T01:39:24;13.03;;;8.17;;
12601;SDS011;30282;16.436;99.370;2023-06-14T01:41:54;18.67;;;9.07;;
12601;SDS011;30282;16.436;99.370;2023-06-14T01:44:23;14.03;;;9.10;;
12601;SDS011;30282;16.436;99.370;2023-06-14T01:46:53;15.77;;;8.37;;
12601;SDS011;30282;16.436;99.370;2023-06-14T01:49:22;20.30;;;12.50;;
12601;SDS011;30282;16.436;99.370;2023-06-14T01:51:51;16.80;;;9.40;;
12601;SDS011;30282;16.436;99.370;2023-06-14T01:54:21;15.00;;;9.20;;
12601;SDS011;30282;16.436;99.370;2023-06-14T01:56:53;16.03;;;9.30;;
12601;SDS011;30282;16.436;99.370;2023-06-14T01:59:22;16.13;;;9.07;;
12601;SDS011;30282;16.436;99.370;2023-06-14T02:01:51;15.60;;;9.90;;
12601;SDS011;30282;16.436;99.370;2023-06-14T02:04:21;19.70;;;9.17;;
12601;SDS011;30282;16.436;99.370;2023-06-14T02:06:50;19.80;;;9.63;;
12601;SDS011;30282;16.436;99.370;2023-06-14T02:09:19;14.93;;;9.07;;
12601;SDS011;30282;16.436;99.370;2023-06-14T02:11:51;12.70;;;9.03;;
12601;SDS011;30282;16.436;99.370;2023-06-14T02:14:20;16.07;;;9.53;;
12601;SDS011;30282;16.436;99.370;2023-06-14T02:16:49;16.00;;;10.07;;
12601;SDS011;30282;16.436;99.370;2023-06-14T02:19:19;20.40;;;9.53;;
12601;SDS011;30282;16.436;99.370;2023-06-14T02:21:49;12.73;;;8.80;;
12601;SDS011;30282;16.436;99.370;2023-06-14T02:24:18;17.40;;;11.47;;
12601;SDS011;30282;16.436;99.370;2023-06-14T02:26:47;19.63;;;10.47;;
12601;SDS011;30282;16.436;99.370;2023-06-14T02:29:19;15.33;;;11.30;;
12601;SDS011;30282;16.436;99.370;2023-06-14T02:31:48;22.90;;;10.83;;
12601;SDS011;30282;16.436;99.370;2023-06-14T02:34:17;19.53;;;10.20;;
12601;SDS011;30282;16.436;99.370;2023-06-14T02:36:47;15.40;;;9.93;;
12601;SDS011;30282;16.436;99.370;2023-06-14T02:39:18;17.87;;;9.50;;
12601;SDS011;30282;16.436;99.370;2023-06-14T02:41:48;18.63;;;9.27;;
12601;SDS011;30282;16.436;99.370;2023-06-14T02:44:20;13.03;;;8.43;;
12601;SDS011;30282;16.436;99.370;2023-06-14T02:46:53;16.60;;;10.00;;
12601;SDS011;30282;16.436;99.370;2023-06-14T02:49:24;13.83;;;8.80;;
12601;SDS011;30282;16.436;99.370;2023-06-14T02:51:53;17.00;;;9.03;;
12601;SDS011;30282;16.436;99.370;2023-06-14T02:54:22;16.10;;;9.30;;
12601;SDS011;30282;16.436;99.370;2023-06-14T02:56:52;18.57;;;10.00;;
12601;SDS011;30282;16.436;99.370;2023-06-14T02:59:23;18.40;;;8.80;;
12601;SDS011;30282;16.436;99.370;2023-06-14T03:01:52;15.97;;;9.30;;
12601;SDS011;30282;16.436;99.370;2023-06-14T03:04:21;18.70;;;8.70;;
12601;SDS011;30282;16.436;99.370;2023-06-14T03:06:51;11.53;;;7.00;;
12601;SDS011;30282;16.436;99.370;2023-06-14T03:09:20;14.53;;;7.60;;
12601;SDS011;30282;16.436;99.370;2023-06-14T03:11:50;14.60;;;7.30;;
12601;SDS011;30282;16.436;99.370;2023-06-14T03:14:19;10.17;;;6.70;;
12601;SDS011;30282;16.436;99.370;2023-06-14T03:16:50;14.63;;;6.50;;
12601;SDS011;30282;16.436;99.370;2023-06-14T03:19:22;18.50;;;11.07;;
12601;SDS011;30282;16.436;99.370;2023-06-14T03:21:52;21.70;;;10.00;;
12601;SDS011;30282;16.436;99.370;2023-06-14T03:24:22;19.63;;;10.10;;
12601;SDS011;30282;16.436;99.370;2023-06-14T03:26:52;11.90;;;7.27;;
12601;SDS011;30282;16.436;99.370;2023-06-14T03:29:22;19.80;;;8.20;;
12601;SDS011;30282;16.436;99.370;2023-06-14T03:31:59;16.20;;;8.97;;
12601;SDS011;30282;16.436;99.370;2023-06-14T03:34:30;16.47;;;8.50;;
12601;SDS011;30282;16.436;99.370;2023-06-14T03:36:59;21.00;;;8.70;;
12601;SDS011;30282;16.436;99.370;2023-06-14T03:39:28;17.40;;;8.30;;
12601;SDS011;30282;16.436;99.370;2023-06-14T03:41:58;16.93;;;8.13;;
12601;SDS011;30282;16.436;99.370;2023-06-14T03:44:27;18.07;;;7.60;;
12601;SDS011;30282;16.436;99.370;2023-06-14T03:46:56;12.07;;;8.40;;
12601;SDS011;30282;16.436;99.370;2023-06-14T03:49:27;13.10;;;8.00;;
12601;SDS011;30282;16.436;99.370;2023-06-14T03:51:56;14.87;;;8.97;;
12601;SDS011;30282;16.436;99.370;2023-06-14T03:54:26;19.33;;;9.23;;
12601;SDS011;30282;16.436;99.370;2023-06-14T03:56:55;14.30;;;8.40;;
12601;SDS011;30282;16.436;99.370;2023-06-14T03:59:24;19.17;;;9.03;;
12601;SDS011;30282;16.436;99.370;2023-06-14T04:01:54;20.87;;;9.90;;
12601;SDS011;30282;16.436;99.370;2023-06-14T04:04:24;15.10;;;9.07;;
12601;SDS011;30282;16.436;99.370;2023-06-14T04:06:55;12.73;;;8.57;;
12601;SDS011;30282;16.436;99.370;2023-06-14T04:09:24;22.73;;;9.07;;
12601;SDS011;30282;16.436;99.370;2023-06-14T04:11:53;16.40;;;9.80;;
12601;SDS011;30282;16.436;99.370;2023-06-14T04:14:23;18.17;;;9.40;;
12601;SDS011;30282;16.436;99.370;2023-06-14T04:16:52;12.27;;;8.80;;
12601;SDS011;30282;16.436;99.370;2023-06-14T04:19:21;15.40;;;10.17;;
12601;SDS011;30282;16.436;99.370;2023-06-14T04:21:52;17.73;;;10.13;;
12601;SDS011;30282;16.436;99.370;2023-06-14T04:24:21;19.87;;;10.60;;
12601;SDS011;30282;16.436;99.370;2023-06-14T04:26:54;14.90;;;9.37;;
12601;SDS011;30282;16.436;99.370;2023-06-14T04:29:24;20.50;;;8.83;;
12601;SDS011;30282;16.436;99.370;2023-06-14T04:31:55;17.90;;;9.70;;
12601;SDS011;30282;16.436;99.370;2023-06-14T04:34:28;19.70;;;9.83;;
12601;SDS011;30282;16.436;99.370;2023-06-14T04:36:58;16.43;;;10.30;;
12601;SDS011;30282;16.436;99.370;2023-06-14T04:39:27;15.70;;;9.47;;
12601;SDS011;30282;16.436;99.370;2023-06-14T04:41:56;19.27;;;10.07;;
12601;SDS011;30282;16.436;99.370;2023-06-14T04:44:26;16.50;;;10.50;;
12601;SDS011;30282;16.436;99.370;2023-06-14T04:46:58;18.30;;;10.17;;
12601;SDS011;30282;16.436;99.370;2023-06-14T04:49:29;16.03;;;10.17;;
12601;SDS011;30282;16.436;99.370;2023-06-14T04:51:59;18.27;;;9.30;;
12601;SDS011;30282;16.436;99.370;2023-06-14T04:54:29;14.67;;;8.13;;
12601;SDS011;30282;16.436;99.370;2023-06-14T04:56:59;17.73;;;8.33;;
12601;SDS011;30282;16.436;99.370;2023-06-14T04:59:28;14.93;;;9.33;;
12601;SDS011;30282;16.436;99.370;2023-06-14T05:01:59;16.00;;;8.93;;
12601;SDS011;30282;16.436;99.370;2023-06-14T05:04:30;18.23;;;8.67;;
12601;SDS011;30282;16.436;99.370;2023-06-14T05:06:59;12.83;;;8.50;;
12601;SDS011;30282;16.436;99.370;2023-06-14T05:09:29;15.97;;;8.97;;
12601;SDS011;30282;16.436;99.370;2023-06-14T05:11:59;16.03;;;7.93;;
12601;SDS011;30282;16.436;99.370;2023-06-14T05:14:28;11.57;;;7.03;;
12601;SDS011;30282;16.436;99.370;2023-06-14T05:16:57;16.30;;;8.53;;
12601;SDS011;30282;16.436;99.370;2023-06-14T05:19:26;20.57;;;8.57;;
12601;SDS011;30282;16.436;99.370;2023-06-14T05:22:00;23.23;;;9.00;;
12601;SDS011;30282;16.436;99.370;2023-06-14T05:24:30;29.10;;;8.20;;
12601;SDS011;30282;16.436;99.370;2023-06-14T05:26:59;17.23;;;9.00;;
12601;SDS011;30282;16.436;99.370;2023-06-14T05:29:28;12.20;;;7.80;;
12601;SDS011;30282;16.436;99.370;2023-06-14T05:31:58;11.27;;;6.83;;
12601;SDS011;30282;16.436;99.370;2023-06-14T05:34:37;13.33;;;8.27;;
12601;SDS011;30282;16.436;99.370;2023-06-14T05:37:07;11.40;;;7.03;;
12601;SDS011;30282;16.436;99.370;2023-06-14T05:39:36;14.40;;;6.83;;
12601;SDS011;30282;16.436;99.370;2023-06-14T05:42:05;12.43;;;7.07;;
12601;SDS011;30282;16.436;99.370;2023-06-14T05:44:35;11.40;;;7.03;;
12601;SDS011;30282;16.436;99.370;2023-06-14T05:47:04;14.73;;;6.53;;
12601;SDS011;30282;16.436;99.370;2023-06-14T05:49:34;17.73;;;7.87;;
12601;SDS011;30282;16.436;99.370;2023-06-14T06:43:01;10.80;;;6.03;;
12601;SDS011;30282;16.436;99.370;2023-06-14T06:45:30;12.67;;;6.53;;
12601;SDS011;30282;16.436;99.370;2023-06-14T06:47:59;12.23;;;5.80;;
12601;SDS011;30282;16.436;99.370;2023-06-14T06:50:28;16.60;;;6.63;;
12601;SDS011;30282;16.436;99.370;2023-06-14T06:52:57;15.73;;;6.90;;
12601;SDS011;30282;16.436;99.370;2023-06-14T06:55:26;21.93;;;6.63;;
12601;SDS011;30282;16.436;99.370;2023-06-14T06:57:55;9.30;;;6.37;;
12601;SDS011;30282;16.436;99.370;2023-06-14T07:00:27;10.30;;;5.63;;
12601;SDS011;30282;16.436;99.370;2023-06-14T07:02:56;11.90;;;5.50;;
12601;SDS011;30282;16.436;99.370;2023-06-14T07:05:25;5.90;;;3.57;;
12601;SDS011;30282;16.436;99.370;2023-06-14T07:07:54;7.40;;;3.87;;
12601;SDS011;30282;16.436;99.370;2023-06-14T07:10:23;7.80;;;4.13;;
12601;SDS011;30282;16.436;99.370;2023-06-14T07:12:52;9.60;;;5.00;;
12601;SDS011;30282;16.436;99.370;2023-06-14T07:15:21;12.70;;;5.10;;
12601;SDS011;30282;16.436;99.370;2023-06-14T07:17:52;6.73;;;4.70;;
12601;SDS011;30282;16.436;99.370;2023-06-14T07:20:25;11.93;;;5.00;;
12601;SDS011;30282;16.436;99.370;2023-06-14T07:22:54;10.73;;;4.60;;
12601;SDS011;30282;16.436;99.370;2023-06-14T07:25:23;10.90;;;4.30;;
12601;SDS011;30282;16.436;99.370;2023-06-14T07:27:52;17.83;;;4.87;;
12601;SDS011;30282;16.436;99.370;2023-06-14T07:30:21;10.33;;;5.00;;
12601;SDS011;30282;16.436;99.370;2023-06-14T07:32:53;8.90;;;4.27;;
12601;SDS011;30282;16.436;99.370;2023-06-14T07:35:22;8.03;;;3.80;;
12601;SDS011;30282;16.436;99.370;2023-06-14T07:37:51;9.20;;;3.80;;
12601;SDS011;30282;16.436;99.370;2023-06-14T07:40:20;8.60;;;3.90;;
12601;SDS011;30282;16.436;99.370;2023-06-14T07:42:49;8.43;;;3.80;;
12601;SDS011;30282;16.436;99.370;2023-06-14T07:45:20;8.20;;;4.10;;
12601;SDS011;30282;16.436;99.370;2023-06-14T07:47:53;7.20;;;3.50;;
12601;SDS011;30282;16.436;99.370;2023-06-14T07:50:24;6.83;;;3.00;;
12601;SDS011;30282;16.436;99.370;2023-06-14T07:52:56;7.50;;;2.93;;
12601;SDS011;30282;16.436;99.370;2023-06-14T07:55:25;10.67;;;3.10;;
12601;SDS011;30282;16.436;99.370;2023-06-14T07:57:54;9.73;;;4.17;;
12601;SDS011;30282;16.436;99.370;2023-06-14T08:00:25;5.70;;;3.03;;
12601;SDS011;30282;16.436;99.370;2023-06-14T08:02:59;5.77;;;2.93;;
12601;SDS011;30282;16.436;99.370;2023-06-14T08:05:28;7.67;;;3.03;;
12601;SDS011;30282;16.436;99.370;2023-06-14T08:08:00;9.63;;;3.50;;
12601;SDS011;30282;16.436;99.370;2023-06-14T08:10:32;6.50;;;3.03;;
12601;SDS011;30282;16.436;99.370;2023-06-14T08:13:01;6.87;;;3.23;;
12601;SDS011;30282;16.436;99.370;2023-06-14T08:15:33;5.30;;;3.13;;
12601;SDS011;30282;16.436;99.370;2023-06-14T08:18:03;9.63;;;3.30;;
12601;SDS011;30282;16.436;99.370;2023-06-14T08:20:32;7.00;;;3.13;;
12601;SDS011;30282;16.436;99.370;2023-06-14T08:23:04;7.17;;;3.10;;
12601;SDS011;30282;16.436;99.370;2023-06-14T08:25:36;5.97;;;2.50;;
12601;SDS011;30282;16.436;99.370;2023-06-14T08:28:06;5.97;;;3.17;;
12601;SDS011;30282;16.436;99.370;2023-06-14T08:30:35;10.07;;;2.90;;
12601;SDS011;30282;16.436;99.370;2023-06-14T08:33:05;9.30;;;2.60;;
12601;SDS011;30282;16.436;99.370;2023-06-14T08:35:34;5.03;;;2.70;;
12601;SDS011;30282;16.436;99.370;2023-06-14T08:38:05;6.47;;;2.70;;
12601;SDS011;30282;16.436;99.370;2023-06-14T08:40:34;7.23;;;2.13;;
12601;SDS011;30282;16.436;99.370;2023-06-14T08:43:05;6.40;;;2.57;;
12601;SDS011;30282;16.436;99.370;2023-06-14T08:45:35;5.67;;;2.27;;
12601;SDS011;30282;16.436;99.370;2023-06-14T08:48:12;9.20;;;2.90;;
12601;SDS011;30282;16.436;99.370;2023-06-14T08:50:42;4.20;;;2.23;;
12601;SDS011;30282;16.436;99.370;2023-06-14T08:53:14;7.80;;;2.60;;
12601;SDS011;30282;16.436;99.370;2023-06-14T08:55:46;9.33;;;3.27;;
12601;SDS011;30282;16.436;99.370;2023-06-14T08:58:16;9.83;;;2.60;;
12601;SDS011;30282;16.436;99.370;2023-06-14T09:00:49;8.07;;;3.40;;
12601;SDS011;30282;16.436;99.370;2023-06-14T09:03:21;6.63;;;2.90;;
12601;SDS011;30282;16.436;99.370;2023-06-14T09:05:55;4.40;;;2.40;;
12601;SDS011;30282;16.436;99.370;2023-06-14T09:08:27;5.17;;;2.43;;
12601;SDS011;30282;16.436;99.370;2023-06-14T09:11:00;5.87;;;2.40;;
12601;SDS011;30282;16.436;99.370;2023-06-14T09:13:30;6.77;;;2.40;;
12601;SDS011;30282;16.436;99.370;2023-06-14T09:16:02;6.83;;;2.77;;
12601;SDS011;30282;16.436;99.370;2023-06-14T09:18:37;6.37;;;3.07;;
12601;SDS011;30282;16.436;99.370;2023-06-14T09:21:13;6.60;;;2.50;;
12601;SDS011;30282;16.436;99.370;2023-06-14T09:23:46;5.20;;;2.80;;
12601;SDS011;30282;16.436;99.370;2023-06-14T09:26:19;7.33;;;2.40;;
12601;SDS011;30282;16.436;99.370;2023-06-14T09:28:55;6.47;;;2.87;;
12601;SDS011;30282;16.436;99.370;2023-06-14T09:31:28;7.83;;;3.53;;
12601;SDS011;30282;16.436;99.370;2023-06-14T09:34:06;8.07;;;3.67;;
12601;SDS011;30282;16.436;99.370;2023-06-14T09:36:37;9.10;;;3.00;;
12601;SDS011;30282;16.436;99.370;2023-06-14T09:39:08;6.30;;;2.43;;
12601;SDS011;30282;16.436;99.370;2023-06-14T09:41:38;7.80;;;2.37;;
12601;SDS011;30282;16.436;99.370;2023-06-14T09:44:09;7.50;;;2.73;;
12601;SDS011;30282;16.436;99.370;2023-06-14T09:46:38;6.70;;;2.60;;
12601;SDS011;30282;16.436;99.370;2023-06-14T09:49:12;5.60;;;2.37;;
12601;SDS011;30282;16.436;99.370;2023-06-14T09:51:45;5.37;;;2.27;;
12601;SDS011;30282;16.436;99.370;2023-06-14T09:54:16;8.37;;;2.90;;
12601;SDS011;30282;16.436;99.370;2023-06-14T09:56:53;8.47;;;2.90;;
12601;SDS011;30282;16.436;99.370;2023-06-14T09:59:25;4.90;;;2.23;;
12601;SDS011;30282;16.436;99.370;2023-06-14T10:01:59;6.90;;;2.43;;
12601;SDS011;30282;16.436;99.370;2023-06-14T10:04:34;6.33;;;2.57;;
12601;SDS011;30282;16.436;99.370;2023-06-14T10:07:03;6.83;;;3.10;;
12601;SDS011;30282;16.436;99.370;2023-06-14T10:09:33;10.87;;;3.33;;
12601;SDS011;30282;16.436;99.370;2023-06-14T10:12:05;6.20;;;2.37;;
12601;SDS011;30282;16.436;99.370;2023-06-14T10:14:36;6.67;;;2.23;;
12601;SDS011;30282;16.436;99.370;2023-06-14T10:17:06;6.20;;;3.27;;
12601;SDS011;30282;16.436;99.370;2023-06-14T10:19:42;9.40;;;2.47;;
12601;SDS011;30282;16.436;99.370;2023-06-14T10:22:18;5.90;;;2.70;;
12601;SDS011;30282;16.436;99.370;2023-06-14T10:24:51;5.60;;;2.97;;
12601;SDS011;30282;16.436;99.370;2023-06-14T10:27:20;7.10;;;3.10;;
12601;SDS011;30282;16.436;99.370;2023-06-14T10:32:35;6.90;;;2.83;;
12601;SDS011;30282;16.436;99.370;2023-06-14T10:35:33;7.97;;;2.67;;
12601;SDS011;30282;16.436;99.370;2023-06-14T10:38:08;13.13;;;3.40;;
12601;SDS011;30282;16.436;99.370;2023-06-14T10:40:39;7.17;;;3.57;;
12601;SDS011;30282;16.436;99.370;2023-06-14T10:43:21;8.20;;;2.90;;
12601;SDS011;30282;16.436;99.370;2023-06-14T10:48:42;8.37;;;3.00;;
12601;SDS011;30282;16.436;99.370;2023-06-14T10:51:19;4.90;;;2.70;;
12601;SDS011;30282;16.436;99.370;2023-06-14T10:53:49;9.43;;;3.77;;
12601;SDS011;30282;16.436;99.370;2023-06-14T10:56:27;12.20;;;4.90;;
12601;SDS011;30282;16.436;99.370;2023-06-14T10:58:56;14.20;;;4.90;;
12601;SDS011;30282;16.436;99.370;2023-06-14T11:01:31;8.97;;;4.00;;
12601;SDS011;30282;16.436;99.370;2023-06-14T11:04:07;6.17;;;3.40;;
12601;SDS011;30282;16.436;99.370;2023-06-14T11:06:45;9.27;;;3.30;;
12601;SDS011;30282;16.436;99.370;2023-06-14T11:09:27;9.80;;;3.43;;
12601;SDS011;30282;16.436;99.370;2023-06-14T11:12:27;6.57;;;3.30;;
12601;SDS011;30282;16.436;99.370;2023-06-14T11:14:59;6.77;;;3.03;;
12601;SDS011;30282;16.436;99.370;2023-06-14T11:17:32;7.33;;;3.07;;
12601;SDS011;30282;16.436;99.370;2023-06-14T11:20:08;7.80;;;3.10;;
12601;SDS011;30282;16.436;99.370;2023-06-14T11:22:42;6.77;;;3.20;;
12601;SDS011;30282;16.436;99.370;2023-06-14T11:25:12;21.07;;;4.03;;
12601;SDS011;30282;16.436;99.370;2023-06-14T11:27:41;10.57;;;3.20;;
12601;SDS011;30282;16.436;99.370;2023-06-14T11:30:11;14.30;;;3.50;;
12601;SDS011;30282;16.436;99.370;2023-06-14T11:32:41;5.50;;;2.77;;
12601;SDS011;30282;16.436;99.370;2023-06-14T11:35:10;6.80;;;2.80;;
12601;SDS011;30282;16.436;99.370;2023-06-14T11:37:39;8.33;;;2.50;;
12601;SDS011;30282;16.436;99.370;2023-06-14T11:40:11;7.30;;;2.53;;
12601;SDS011;30282;16.436;99.370;2023-06-14T11:42:40;21.73;;;3.10;;
12601;SDS011;30282;16.436;99.370;2023-06-14T11:45:10;9.33;;;4.10;;
12601;SDS011;30282;16.436;99.370;2023-06-14T11:47:39;7.33;;;3.00;;
12601;SDS011;30282;16.436;99.370;2023-06-14T11:50:09;7.07;;;3.20;;
12601;SDS011;30282;16.436;99.370;2023-06-14T11:52:38;9.80;;;3.10;;
12601;SDS011;30282;16.436;99.370;2023-06-14T11:55:09;9.37;;;3.57;;
12601;SDS011;30282;16.436;99.370;2023-06-14T11:57:38;10.67;;;3.70;;
12601;SDS011;30282;16.436;99.370;2023-06-14T12:00:07;8.40;;;3.40;;
12601;SDS011;30282;16.436;99.370;2023-06-14T12:02:38;7.30;;;3.00;;
12601;SDS011;30282;16.436;99.370;2023-06-14T12:05:08;7.20;;;2.90;;
12601;SDS011;30282;16.436;99.370;2023-06-14T12:07:37;7.60;;;3.63;;
12601;SDS011;30282;16.436;99.370;2023-06-14T12:10:09;6.43;;;3.03;;
12601;SDS011;30282;16.436;99.370;2023-06-14T12:12:40;10.23;;;2.87;;
12601;SDS011;30282;16.436;99.370;2023-06-14T12:15:10;9.43;;;3.00;;
12601;SDS011;30282;16.436;99.370;2023-06-14T12:17:39;8.27;;;2.60;;
12601;SDS011;30282;16.436;99.370;2023-06-14T12:20:10;7.33;;;2.90;;
12601;SDS011;30282;16.436;99.370;2023-06-14T12:22:50;11.30;;;2.77;;
12601;SDS011;30282;16.436;99.370;2023-06-14T12:25:28;5.97;;;3.17;;
12601;SDS011;30282;16.436;99.370;2023-06-14T12:27:59;8.63;;;3.10;;
12601;SDS011;30282;16.436;99.370;2023-06-14T12:30:32;7.93;;;2.60;;
12601;SDS011;30282;16.436;99.370;2023-06-14T12:33:01;10.80;;;3.03;;
12601;SDS011;30282;16.436;99.370;2023-06-14T12:35:31;9.03;;;3.90;;
12601;SDS011;30282;16.436;99.370;2023-06-14T12:38:00;13.40;;;5.97;;
12601;SDS011;30282;16.436;99.370;2023-06-14T12:40:31;9.50;;;4.53;;
12601;SDS011;30282;16.436;99.370;2023-06-14T12:43:03;10.43;;;4.80;;
12601;SDS011;30282;16.436;99.370;2023-06-14T12:45:32;7.30;;;3.27;;
12601;SDS011;30282;16.436;99.370;2023-06-14T12:48:02;6.87;;;2.70;;
12601;SDS011;30282;16.436;99.370;2023-06-14T12:50:31;7.23;;;2.80;;
12601;SDS011;30282;16.436;99.370;2023-06-14T12:53:01;7.43;;;2.60;;
12601;SDS011;30282;16.436;99.370;2023-06-14T12:55:34;10.37;;;2.50;;
12601;SDS011;30282;16.436;99.370;2023-06-14T12:58:04;7.03;;;3.20;;
12601;SDS011;30282;16.436;99.370;2023-06-14T13:00:34;7.43;;;2.53;;
12601;SDS011;30282;16.436;99.370;2023-06-14T13:03:04;4.90;;;2.17;;
12601;SDS011;30282;16.436;99.370;2023-06-14T13:05:33;8.40;;;2.80;;
12601;SDS011;30282;16.436;99.370;2023-06-14T13:08:07;7.10;;;2.73;;
12601;SDS011;30282;16.436;99.370;2023-06-14T13:10:42;7.93;;;2.70;;
12601;SDS011;30282;16.436;99.370;2023-06-14T13:13:14;5.30;;;2.50;;
12601;SDS011;30282;16.436;99.370;2023-06-14T13:15:49;5.83;;;2.30;;
12601;SDS011;30282;16.436;99.370;2023-06-14T13:18:18;6.73;;;2.83;;
12601;SDS011;30282;16.436;99.370;2023-06-14T13:20:47;14.10;;;2.73;;
12601;SDS011;30282;16.436;99.370;2023-06-14T13:23:17;8.60;;;3.07;;
12601;SDS011;30282;16.436;99.370;2023-06-14T13:25:51;11.43;;;3.00;;
12601;SDS011;30282;16.436;99.370;2023-06-14T13:28:26;7.80;;;3.30;;
12601;SDS011;30282;16.436;99.370;2023-06-14T13:30:57;10.57;;;3.60;;
12601;SDS011;30282;16.436;99.370;2023-06-14T13:33:26;10.73;;;3.77;;
12601;SDS011;30282;16.436;99.370;2023-06-14T13:36:06;9.80;;;3.70;;
12601;SDS011;30282;16.436;99.370;2023-06-14T13:38:36;10.70;;;3.60;;
12601;SDS011;30282;16.436;99.370;2023-06-14T13:41:07;12.73;;;3.50;;
12601;SDS011;30282;16.436;99.370;2023-06-14T13:43:39;10.87;;;3.47;;
12601;SDS011;30282;16.436;99.370;2023-06-14T13:46:08;7.93;;;3.10;;
12601;SDS011;30282;16.436;99.370;2023-06-14T13:48:38;5.93;;;3.20;;
12601;SDS011;30282;16.436;99.370;2023-06-14T13:51:08;7.53;;;3.17;;
12601;SDS011;30282;16.436;99.370;2023-06-14T13:53:37;9.00;;;3.53;;
12601;SDS011;30282;16.436;99.370;2023-06-14T13:56:12;12.00;;;3.63;;
12601;SDS011;30282;16.436;99.370;2023-06-14T13:58:41;9.83;;;3.73;;
12601;SDS011;30282;16.436;99.370;2023-06-14T14:01:11;8.93;;;3.33;;
12601;SDS011;30282;16.436;99.370;2023-06-14T14:03:40;8.07;;;3.13;;
12601;SDS011;30282;16.436;99.370;2023-06-14T14:06:11;8.80;;;2.87;;
12601;SDS011;30282;16.436;99.370;2023-06-14T14:08:40;6.90;;;3.30;;
12601;SDS011;30282;16.436;99.370;2023-06-14T14:11:16;8.40;;;3.23;;
12601;SDS011;30282;16.436;99.370;2023-06-14T14:13:53;6.00;;;2.83;;
12601;SDS011;30282;16.436;99.370;2023-06-14T14:16:28;12.57;;;3.80;;
12601;SDS011;30282;16.436;99.370;2023-06-14T14:19:03;13.10;;;3.30;;
12601;SDS011;30282;16.436;99.370;2023-06-14T14:21:34;6.90;;;3.80;;
12601;SDS011;30282;16.436;99.370;2023-06-14T14:24:04;10.30;;;3.70;;
12601;SDS011;30282;16.436;99.370;2023-06-14T14:26:43;8.20;;;3.67;;
12601;SDS011;30282;16.436;99.370;2023-06-14T14:29:13;8.73;;;3.70;;
12601;SDS011;30282;16.436;99.370;2023-06-14T14:31:45;10.17;;;4.27;;
12601;SDS011;30282;16.436;99.370;2023-06-14T14:34:14;11.80;;;4.83;;
12601;SDS011;30282;16.436;99.370;2023-06-14T14:36:44;20.47;;;4.77;;
12601;SDS011;30282;16.436;99.370;2023-06-14T14:39:13;9.60;;;4.53;;
12601;SDS011;30282;16.436;99.370;2023-06-14T14:41:44;13.63;;;4.77;;
12601;SDS011;30282;16.436;99.370;2023-06-14T14:44:13;11.70;;;4.90;;
12601;SDS011;30282;16.436;99.370;2023-06-14T14:46:44;16.00;;;5.50;;
12601;SDS011;30282;16.436;99.370;2023-06-14T14:49:13;15.00;;;5.77;;
12601;SDS011;30282;16.436;99.370;2023-06-14T14:51:42;13.17;;;6.00;;
12601;SDS011;30282;16.436;99.370;2023-06-14T14:54:14;12.90;;;5.17;;
12601;SDS011;30282;16.436;99.370;2023-06-14T14:56:45;14.20;;;5.77;;
12601;SDS011;30282;16.436;99.370;2023-06-14T14:59:17;27.03;;;6.50;;
12601;SDS011;30282;16.436;99.370;2023-06-14T15:01:47;14.67;;;6.03;;
12601;SDS011;30282;16.436;99.370;2023-06-14T15:04:17;13.60;;;6.47;;
12601;SDS011;30282;16.436;99.370;2023-06-14T15:06:46;12.23;;;5.50;;
12601;SDS011;30282;16.436;99.370;2023-06-14T15:09:16;13.77;;;5.87;;
12601;SDS011;30282;16.436;99.370;2023-06-14T15:11:47;27.03;;;5.80;;
12601;SDS011;30282;16.436;99.370;2023-06-14T15:14:16;15.47;;;6.80;;
12601;SDS011;30282;16.436;99.370;2023-06-14T15:16:45;9.20;;;5.17;;
12601;SDS011;30282;16.436;99.370;2023-06-14T15:19:15;17.50;;;7.00;;
12601;SDS011;30282;16.436;99.370;2023-06-14T15:21:46;13.00;;;6.73;;
12601;SDS011;30282;16.436;99.370;2023-06-14T15:24:15;18.07;;;6.30;;
12601;SDS011;30282;16.436;99.370;2023-06-14T15:26:46;16.43;;;6.77;;
12601;SDS011;30282;16.436;99.370;2023-06-14T15:29:15;14.93;;;5.57;;
12601;SDS011;30282;16.436;99.370;2023-06-14T15:31:45;15.27;;;6.80;;
12601;SDS011;30282;16.436;99.370;2023-06-14T15:34:14;13.20;;;6.77;;
12601;SDS011;30282;16.436;99.370;2023-06-14T15:36:44;16.67;;;7.17;;
12601;SDS011;30282;16.436;99.370;2023-06-14T15:39:13;16.00;;;7.87;;
12601;SDS011;30282;16.436;99.370;2023-06-14T15:41:42;17.83;;;6.50;;
12601;SDS011;30282;16.436;99.370;2023-06-14T15:44:15;14.77;;;6.80;;